createdAt,value
2023-01-01T00:00:26.290Z,16.55
2023-01-01T00:01:32.307Z,16.53
2023-01-01T00:02:37.205Z,16.53
2023-01-01T00:03:39.410Z,16.42
2023-01-01T00:04:42.724Z,16.43
2023-01-01T00:05:44.214Z,16.38
2023-01-01T00:06:46.747Z,16.38
2023-01-01T00:07:49.254Z,16.44
2023-01-01T00:09:12.814Z,16.42
2023-01-01T00:10:29.920Z,16.42
2023-01-01T00:11:32.842Z,16.45
2023-01-01T00:12:34.512Z,16.47
2023-01-01T00:13:39.102Z,16.43
2023-01-01T00:14:42.989Z,16.38
2023-01-01T00:15:45.641Z,16.40
2023-01-01T00:16:48.704Z,16.37
2023-01-01T00:17:51.347Z,16.37
2023-01-01T00:18:53.057Z,16.10
2023-01-01T00:19:55.503Z,16.22
2023-01-01T00:21:03.380Z,16.28
2023-01-01T00:22:27.836Z,16.26
2023-01-01T00:23:27.346Z,16.29
2023-01-01T00:24:28.862Z,16.34
2023-01-01T00:25:32.520Z,16.33
2023-01-01T00:26:35.536Z,16.33
2023-01-01T00:27:38.348Z,16.25
2023-01-01T00:28:41.081Z,16.50
2023-01-01T00:29:43.571Z,16.43
2023-01-01T00:30:49.133Z,16.41
2023-01-01T00:31:52.936Z,16.31
2023-01-01T00:32:56.560Z,16.29
2023-01-01T00:33:58.536Z,16.28
2023-01-01T00:35:01.065Z,16.29
2023-01-01T00:36:07.643Z,16.35
2023-01-01T00:37:10.104Z,16.36
2023-01-01T00:38:12.604Z,16.28
2023-01-01T00:39:14.258Z,16.34
2023-01-01T00:40:16.826Z,16.40
2023-01-01T00:41:18.778Z,16.38
2023-01-01T00:42:21.346Z,16.24
2023-01-01T00:43:23.808Z,16.29
2023-01-01T00:44:26.296Z,16.32
2023-01-01T00:45:27.834Z,16.26
2023-01-01T00:46:30.635Z,16.20
2023-01-01T00:47:33.486Z,16.25
2023-01-01T00:48:36.474Z,16.41
2023-01-01T00:49:38.393Z,16.25
2023-01-01T00:50:40.945Z,16.22
2023-01-01T00:51:42.470Z,16.23
2023-01-01T00:52:45.022Z,16.15
2023-01-01T00:53:49.478Z,16.18
2023-01-01T00:54:52.188Z,16.13
2023-01-01T00:55:56.387Z,16.15
2023-01-01T00:56:59.233Z,16.18
2023-01-01T00:58:01.812Z,16.22
2023-01-01T00:59:03.554Z,16.19
2023-01-01T01:00:08.807Z,16.30
2023-01-01T01:01:10.584Z,16.12
2023-01-01T01:02:13.221Z,16.17
2023-01-01T01:03:28.303Z,16.16
2023-01-01T01:04:30.947Z,16.15
2023-01-01T01:05:33.428Z,16.08
2023-01-01T01:06:36.833Z,16.01
2023-01-01T01:07:39.128Z,15.98
2023-01-01T01:08:42.891Z,16.01
2023-01-01T01:09:45.530Z,16.05
2023-01-01T01:10:47.020Z,16.10
2023-01-01T01:11:49.741Z,16.02
2023-01-01T01:12:52.563Z,16.09
2023-01-01T01:13:56.403Z,15.91
2023-01-01T01:14:58.842Z,15.89
2023-01-01T01:16:00.399Z,15.89
2023-01-01T01:17:05.531Z,16.02
2023-01-01T01:18:07.105Z,16.02
2023-01-01T01:19:15.159Z,16.11
2023-01-01T01:20:16.885Z,16.28
2023-01-01T01:21:21.598Z,16.07
2023-01-01T01:22:28.351Z,16.00
2023-01-01T01:23:31.600Z,16.02
2023-01-01T01:24:33.124Z,16.12
2023-01-01T01:25:35.627Z,16.15
2023-01-01T01:26:37.139Z,16.21
2023-01-01T01:27:39.640Z,16.05
2023-01-01T01:28:48.815Z,16.01
2023-01-01T01:29:51.867Z,16.00
2023-01-01T01:30:53.411Z,16.10
2023-01-01T01:31:56.031Z,16.23
2023-01-01T01:32:57.614Z,16.21
2023-01-01T01:34:00.133Z,16.17
2023-01-01T01:35:04.163Z,16.04
2023-01-01T01:36:06.523Z,16.06
2023-01-01T01:37:09.054Z,16.18
2023-01-01T01:38:11.049Z,16.08
2023-01-01T01:39:13.714Z,16.11
2023-01-01T01:40:17.646Z,16.13
2023-01-01T01:41:28.280Z,16.18
2023-01-01T01:42:30.627Z,16.23
2023-01-01T01:43:51.345Z,16.23
2023-01-01T01:44:58.165Z,16.18
2023-01-01T01:46:03.738Z,16.18
2023-01-01T01:47:06.717Z,16.15
2023-01-01T01:48:09.635Z,16.03
2023-01-01T01:49:18.542Z,15.90
2023-01-01T01:50:25.999Z,15.91
2023-01-01T01:51:33.226Z,15.89
2023-01-01T01:52:38.005Z,15.96
2023-01-01T01:53:45.630Z,15.90
2023-01-01T01:54:47.655Z,15.93
2023-01-01T01:55:53.238Z,16.07
2023-01-01T01:56:58.569Z,16.06
2023-01-01T01:58:01.504Z,16.10
2023-01-01T01:59:03.288Z,16.12
2023-01-01T02:00:10.847Z,15.96
2023-01-01T02:01:14.109Z,15.95
2023-01-01T02:02:27.082Z,16.00
2023-01-01T02:03:33.955Z,16.01
2023-01-01T02:04:36.676Z,16.05
2023-01-01T02:05:41.400Z,15.94
2023-01-01T02:06:45.622Z,15.93
2023-01-01T02:07:49.042Z,15.89
2023-01-01T02:08:52.450Z,15.99
2023-01-01T02:09:54.425Z,15.95
2023-01-01T02:10:56.937Z,15.97
2023-01-01T02:11:59.230Z,16.06
2023-01-01T02:13:02.356Z,16.02
2023-01-01T02:14:04.413Z,15.92
2023-01-01T02:15:08.939Z,15.94
2023-01-01T02:16:16.597Z,15.98
2023-01-01T02:17:25.432Z,15.99
2023-01-01T02:18:36.814Z,15.90
2023-01-01T02:19:47.557Z,15.79
2023-01-01T02:20:55.445Z,15.94
2023-01-01T02:22:07.796Z,15.89
2023-01-01T02:23:22.916Z,15.80
2023-01-01T02:24:58.092Z,15.92
2023-01-01T02:26:10.646Z,15.78
2023-01-01T02:27:22.046Z,15.71
2023-01-01T02:28:37.921Z,15.64
2023-01-01T02:29:45.939Z,15.54
2023-01-01T02:30:48.762Z,15.62
2023-01-01T02:31:57.193Z,15.71
2023-01-01T02:33:03.037Z,15.70
2023-01-01T02:34:10.022Z,15.78
2023-01-01T02:35:36.556Z,15.73
2023-01-01T02:36:42.240Z,15.68
2023-01-01T02:37:44.869Z,15.66
2023-01-01T02:38:51.528Z,15.69
2023-01-01T02:39:59.015Z,15.77
2023-01-01T02:41:05.083Z,15.72
2023-01-01T02:42:09.461Z,15.61
2023-01-01T02:43:11.170Z,15.60
2023-01-01T02:44:15.053Z,15.51
2023-01-01T02:45:16.657Z,15.42
2023-01-01T02:47:20.472Z,15.64
2023-01-01T02:48:38.587Z,15.48
2023-01-01T02:49:49.568Z,15.42
2023-01-01T02:50:52.006Z,15.37
2023-01-01T02:52:03.936Z,15.38
2023-01-01T02:53:21.899Z,15.44
2023-01-01T02:54:32.471Z,15.39
2023-01-01T02:55:49.633Z,15.41
2023-01-01T02:56:57.975Z,15.37
2023-01-01T02:58:23.022Z,15.28
2023-01-01T02:59:51.812Z,15.37
2023-01-01T03:01:02.860Z,15.23
2023-01-01T03:02:13.534Z,15.19
2023-01-01T03:03:26.337Z,15.21
2023-01-01T03:04:35.713Z,15.01
2023-01-01T03:06:02.498Z,15.01
2023-01-01T03:07:14.662Z,15.09
2023-01-01T03:08:27.876Z,15.08
2023-01-01T03:09:43.237Z,15.05
2023-01-01T03:10:52.395Z,15.07
2023-01-01T03:12:00.990Z,14.92
2023-01-01T03:13:11.527Z,15.16
2023-01-01T03:14:20.891Z,15.11
2023-01-01T03:15:31.281Z,15.07
2023-01-01T03:16:38.099Z,15.20
2023-01-01T03:17:46.604Z,15.10
2023-01-01T03:19:10.967Z,14.94
2023-01-01T03:20:20.111Z,14.93
2023-01-01T03:21:22.386Z,14.98
2023-01-01T03:22:32.255Z,14.92
2023-01-01T03:23:37.127Z,14.87
2023-01-01T03:24:46.213Z,14.80
2023-01-01T03:25:51.723Z,14.66
2023-01-01T03:26:58.749Z,14.78
2023-01-01T03:28:04.953Z,14.73
2023-01-01T03:29:10.598Z,14.90
2023-01-01T03:30:14.725Z,14.76
2023-01-01T03:31:22.635Z,14.81
2023-01-01T03:32:49.570Z,14.76
2023-01-01T03:33:57.842Z,14.71
2023-01-01T03:34:59.808Z,14.66
2023-01-01T03:36:07.989Z,14.71
2023-01-01T03:37:16.452Z,14.70
2023-01-01T03:38:22.701Z,14.65
2023-01-01T03:39:33.113Z,14.65
2023-01-01T03:40:38.432Z,14.58
2023-01-01T03:41:46.188Z,14.64
2023-01-01T03:42:51.830Z,14.55
2023-01-01T03:44:02.310Z,14.66
2023-01-01T03:45:09.396Z,14.77
2023-01-01T03:46:14.164Z,14.79
2023-01-01T03:47:17.197Z,14.83
2023-01-01T03:48:20.108Z,14.84
2023-01-01T03:49:22.103Z,14.99
2023-01-01T03:50:36.430Z,14.78
2023-01-01T03:51:55.999Z,14.61
2023-01-01T03:53:07.067Z,14.62
2023-01-01T03:54:20.121Z,14.70
2023-01-01T03:55:31.329Z,14.64
2023-01-01T03:56:39.559Z,14.57
2023-01-01T03:57:50.668Z,14.52
2023-01-01T03:58:56.460Z,14.24
2023-01-01T04:00:04.324Z,14.31
2023-01-01T04:01:11.205Z,14.28
2023-01-01T04:02:18.007Z,14.24
2023-01-01T04:03:23.933Z,14.25
2023-01-01T04:04:27.862Z,14.27
2023-01-01T04:05:30.884Z,14.13
2023-01-01T04:06:33.941Z,14.22
2023-01-01T04:07:35.827Z,14.20
2023-01-01T04:08:38.882Z,14.33
2023-01-01T04:09:43.320Z,14.45
2023-01-01T04:10:50.038Z,14.55
2023-01-01T04:12:01.499Z,14.42
2023-01-01T04:13:06.653Z,14.41
2023-01-01T04:14:08.305Z,14.47
2023-01-01T04:15:11.112Z,14.52
2023-01-01T04:16:12.788Z,14.53
2023-01-01T04:17:15.392Z,14.46
2023-01-01T04:18:17.052Z,14.43
2023-01-01T04:19:20.862Z,14.26
2023-01-01T04:20:24.543Z,14.24
2023-01-01T04:21:26.268Z,14.23
2023-01-01T04:22:28.713Z,14.23
2023-01-01T04:23:30.277Z,14.20
2023-01-01T04:24:33.078Z,14.23
2023-01-01T04:25:34.573Z,14.29
2023-01-01T04:26:37.232Z,14.25
2023-01-01T04:27:40.657Z,14.21
2023-01-01T04:28:42.625Z,14.32
2023-01-01T04:29:45.066Z,14.23
2023-01-01T04:30:46.593Z,14.27
2023-01-01T04:31:49.837Z,14.23
2023-01-01T04:32:51.403Z,14.33
2023-01-01T04:33:54.742Z,14.28
2023-01-01T04:34:58.569Z,14.30
2023-01-01T04:36:03.967Z,14.20
2023-01-01T04:37:12.747Z,14.30
2023-01-01T04:38:14.915Z,14.33
2023-01-01T04:39:18.027Z,14.41
2023-01-01T04:40:19.585Z,14.41
2023-01-01T04:41:22.089Z,14.40
2023-01-01T04:42:24.547Z,14.31
2023-01-01T04:43:26.196Z,14.16
2023-01-01T04:44:28.694Z,14.31
2023-01-01T04:45:32.112Z,14.43
2023-01-01T04:46:34.615Z,14.37
2023-01-01T04:47:36.059Z,14.37
2023-01-01T04:48:38.592Z,14.41
2023-01-01T04:49:40.091Z,14.51
2023-01-01T04:50:43.852Z,14.44
2023-01-01T04:51:45.399Z,14.60
2023-01-01T04:52:51.284Z,14.58
2023-01-01T04:53:52.867Z,14.25
2023-01-01T04:54:55.330Z,14.27
2023-01-01T04:55:56.893Z,14.39
2023-01-01T04:56:59.349Z,14.44
2023-01-01T04:58:01.028Z,14.31
2023-01-01T04:59:03.649Z,14.42
2023-01-01T05:00:06.340Z,14.07
2023-01-01T05:01:12.015Z,13.90
2023-01-01T05:02:13.799Z,14.10
2023-01-01T05:03:16.395Z,14.10
2023-01-01T05:04:18.241Z,14.01
2023-01-01T05:05:22.306Z,14.07
2023-01-01T05:06:25.646Z,13.93
2023-01-01T05:07:28.260Z,13.91
2023-01-01T05:08:29.939Z,13.97
2023-01-01T05:09:32.534Z,14.12
2023-01-01T05:10:34.075Z,14.05
2023-01-01T05:11:36.574Z,14.03
2023-01-01T05:12:38.049Z,14.14
2023-01-01T05:13:42.794Z,14.08
2023-01-01T05:14:44.328Z,14.05
2023-01-01T05:15:46.810Z,14.00
2023-01-01T05:16:48.384Z,14.03
2023-01-01T05:17:50.914Z,14.07
2023-01-01T05:18:52.691Z,14.16
2023-01-01T05:19:55.149Z,14.11
2023-01-01T05:20:59.777Z,14.17
2023-01-01T05:22:10.168Z,14.10
2023-01-01T05:23:11.940Z,14.16
2023-01-01T05:24:14.455Z,14.26
2023-01-01T05:25:15.989Z,14.23
2023-01-01T05:26:20.014Z,14.21
2023-01-01T05:27:21.632Z,14.23
2023-01-01T05:28:24.281Z,14.22
2023-01-01T05:29:25.861Z,14.27
2023-01-01T05:30:28.456Z,14.30
2023-01-01T05:31:32.966Z,14.31
2023-01-01T05:32:36.575Z,14.32
2023-01-01T05:33:39.100Z,14.46
2023-01-01T05:34:40.668Z,14.56
2023-01-01T05:35:43.132Z,14.47
2023-01-01T05:36:46.036Z,14.50
2023-01-01T05:37:48.937Z,14.43
2023-01-01T05:38:52.084Z,14.51
2023-01-01T05:39:53.555Z,14.40
2023-01-01T05:40:56.143Z,14.50
2023-01-01T05:41:57.632Z,14.57
2023-01-01T05:43:00.118Z,14.58
2023-01-01T05:44:03.214Z,14.63
2023-01-01T05:45:06.779Z,14.66
2023-01-01T05:46:11.634Z,14.62
2023-01-01T05:47:15.552Z,14.62
2023-01-01T05:48:17.036Z,14.48
2023-01-01T05:49:19.561Z,14.44
2023-01-01T05:50:21.044Z,14.52
2023-01-01T05:51:28.246Z,14.54
2023-01-01T05:52:29.765Z,14.62
2023-01-01T05:53:33.950Z,14.63
2023-01-01T05:54:35.452Z,14.56
2023-01-01T05:55:38.007Z,14.64
2023-01-01T05:56:39.588Z,14.57
2023-01-01T05:57:43.865Z,14.54
2023-01-01T05:58:46.234Z,14.61
2023-01-01T05:59:48.734Z,14.69
2023-01-01T06:00:50.404Z,14.78
2023-01-01T06:01:53.168Z,14.68
2023-01-01T06:02:54.979Z,14.55
2023-01-01T06:04:00.385Z,14.38
2023-01-01T06:05:02.011Z,14.43
2023-01-01T06:06:06.310Z,14.30
2023-01-01T06:07:07.875Z,14.28
2023-01-01T06:08:12.827Z,14.41
2023-01-01T06:09:16.706Z,14.37
2023-01-01T06:10:18.311Z,14.18
2023-01-01T06:11:21.537Z,14.27
2023-01-01T06:12:23.096Z,14.41
2023-01-01T06:13:25.577Z,14.45
2023-01-01T06:14:28.103Z,14.45
2023-01-01T06:15:29.628Z,14.33
2023-01-01T06:16:32.571Z,14.43
2023-01-01T06:17:34.410Z,14.54
2023-01-01T06:18:37.710Z,14.64
2023-01-01T06:19:39.201Z,14.60
2023-01-01T06:20:41.643Z,14.57
2023-01-01T06:21:44.082Z,14.66
2023-01-01T06:22:45.893Z,14.56
2023-01-01T06:23:48.895Z,14.53
2023-01-01T06:24:51.700Z,14.53
2023-01-01T06:25:54.153Z,14.58
2023-01-01T06:26:56.630Z,14.63
2023-01-01T06:27:58.525Z,14.66
2023-01-01T06:29:02.755Z,14.68
2023-01-01T06:30:05.822Z,14.72
2023-01-01T06:31:10.637Z,14.83
2023-01-01T06:32:15.176Z,14.79
2023-01-01T06:33:17.612Z,14.86
2023-01-01T06:34:20.259Z,14.79
2023-01-01T06:35:21.797Z,14.66
2023-01-01T06:36:26.555Z,14.57
2023-01-01T06:37:29.406Z,14.64
2023-01-01T06:38:31.279Z,14.68
2023-01-01T06:39:33.718Z,14.83
2023-01-01T06:40:39.447Z,14.89
2023-01-01T06:41:41.912Z,14.89
2023-01-01T06:42:43.404Z,14.86
2023-01-01T06:43:47.279Z,14.77
2023-01-01T06:44:48.808Z,14.73
2023-01-01T06:46:00.586Z,14.56
2023-01-01T06:47:02.301Z,14.50
2023-01-01T06:48:05.295Z,14.50
2023-01-01T06:49:10.164Z,14.53
2023-01-01T06:50:12.684Z,14.54
2023-01-01T06:51:16.122Z,14.65
2023-01-01T06:52:18.615Z,14.68
2023-01-01T06:53:23.877Z,14.71
2023-01-01T06:54:26.575Z,14.77
2023-01-01T06:55:28.295Z,14.80
2023-01-01T06:56:32.542Z,14.70
2023-01-01T06:57:34.584Z,14.72
2023-01-01T06:58:37.279Z,14.67
2023-01-01T06:59:39.737Z,14.61
2023-01-01T07:00:41.241Z,14.66
2023-01-01T07:01:44.475Z,14.63
2023-01-01T07:02:48.053Z,14.72
2023-01-01T07:03:55.809Z,14.48
2023-01-01T07:04:58.232Z,14.50
2023-01-01T07:05:59.717Z,14.51
2023-01-01T07:07:02.269Z,14.53
2023-01-01T07:08:03.972Z,14.54
2023-01-01T07:09:07.817Z,14.78
2023-01-01T07:10:10.506Z,14.81
2023-01-01T07:11:12.053Z,14.78
2023-01-01T07:12:15.905Z,14.64
2023-01-01T07:13:17.380Z,14.28
2023-01-01T07:14:19.875Z,14.38
2023-01-01T07:15:21.392Z,14.41
2023-01-01T07:16:24.833Z,14.40
2023-01-01T07:17:26.444Z,14.43
2023-01-01T07:18:29.007Z,14.54
2023-01-01T07:19:30.665Z,14.60
2023-01-01T07:20:33.221Z,14.60
2023-01-01T07:21:41.586Z,14.55
2023-01-01T07:22:43.257Z,14.55
2023-01-01T07:23:45.861Z,14.64
2023-01-01T07:24:48.955Z,14.49
2023-01-01T07:25:51.694Z,14.56
2023-01-01T07:26:54.454Z,14.62
2023-01-01T07:27:57.715Z,14.47
2023-01-01T07:29:08.724Z,14.43
2023-01-01T07:30:10.994Z,14.51
2023-01-01T07:31:13.485Z,14.47
2023-01-01T07:32:15.978Z,14.68
2023-01-01T07:33:19.398Z,14.80
2023-01-01T07:34:23.802Z,14.67
2023-01-01T07:35:25.311Z,14.59
2023-01-01T07:36:27.864Z,14.65
2023-01-01T07:37:30.748Z,14.61
2023-01-01T07:38:32.254Z,14.67
2023-01-01T07:39:34.730Z,14.65
2023-01-01T07:40:36.367Z,14.51
2023-01-01T07:41:40.124Z,14.53
2023-01-01T07:42:41.730Z,14.21
2023-01-01T07:43:45.526Z,14.28
2023-01-01T07:44:48.033Z,14.44
2023-01-01T07:45:49.605Z,14.57
2023-01-01T07:46:52.213Z,14.45
2023-01-01T07:47:55.439Z,14.36
2023-01-01T07:48:58.010Z,14.33
2023-01-01T07:50:00.569Z,14.38
2023-01-01T07:51:02.122Z,14.30
2023-01-01T07:52:04.731Z,14.41
2023-01-01T07:53:06.253Z,14.51
2023-01-01T07:54:08.818Z,14.55
2023-01-01T07:55:13.376Z,14.58
2023-01-01T07:56:16.018Z,14.48
2023-01-01T07:57:18.506Z,14.42
2023-01-01T07:58:23.046Z,14.48
2023-01-01T07:59:25.882Z,14.47
2023-01-01T08:00:28.933Z,14.35
2023-01-01T08:01:31.731Z,14.41
2023-01-01T08:02:33.476Z,14.39
2023-01-01T08:03:36.035Z,14.56
2023-01-01T08:04:38.505Z,14.43
2023-01-01T08:05:40.076Z,14.43
2023-01-01T08:06:42.579Z,14.47
2023-01-01T08:07:46.546Z,14.48
2023-01-01T08:08:49.159Z,14.52
2023-01-01T08:09:50.775Z,14.58
2023-01-01T08:10:53.228Z,14.72
2023-01-01T08:11:58.447Z,14.61
2023-01-01T08:13:00.614Z,14.61
2023-01-01T08:14:03.550Z,14.67
2023-01-01T08:15:08.261Z,14.70
2023-01-01T08:16:10.809Z,14.72
2023-01-01T08:17:12.438Z,14.61
2023-01-01T08:18:14.904Z,14.54
2023-01-01T08:19:17.348Z,14.72
2023-01-01T08:20:18.853Z,14.63
2023-01-01T08:21:21.315Z,14.78
2023-01-01T08:22:22.882Z,14.87
2023-01-01T08:23:25.424Z,14.73
2023-01-01T08:24:26.929Z,14.44
2023-01-01T08:25:29.473Z,14.41
2023-01-01T08:26:33.033Z,14.49
2023-01-01T08:27:35.585Z,14.64
2023-01-01T08:28:37.076Z,14.72
2023-01-01T08:29:39.482Z,14.55
2023-01-01T08:30:43.363Z,14.69
2023-01-01T08:31:45.049Z,14.81
2023-01-01T08:32:47.703Z,14.88
2023-01-01T08:33:50.252Z,14.93
2023-01-01T08:34:51.746Z,14.95
2023-01-01T08:35:54.871Z,14.82
2023-01-01T08:36:56.560Z,14.82
2023-01-01T08:37:58.998Z,14.71
2023-01-01T08:39:00.994Z,14.66
2023-01-01T08:40:06.856Z,14.73
2023-01-01T08:41:09.362Z,14.70
2023-01-01T08:42:12.495Z,14.83
2023-01-01T08:43:15.315Z,14.93
2023-01-01T08:44:17.959Z,15.07
2023-01-01T08:45:20.448Z,15.18
2023-01-01T08:46:26.607Z,15.21
2023-01-01T08:47:28.074Z,15.12
2023-01-01T08:48:31.156Z,15.22
2023-01-01T08:49:33.671Z,15.25
2023-01-01T08:50:36.336Z,15.14
2023-01-01T08:51:37.864Z,15.14
2023-01-01T08:52:40.273Z,15.17
2023-01-01T08:53:45.513Z,15.09
2023-01-01T08:54:52.919Z,15.02
2023-01-01T08:55:58.942Z,15.05
2023-01-01T08:57:00.522Z,14.93
2023-01-01T08:58:06.678Z,14.80
2023-01-01T08:59:08.199Z,14.86
2023-01-01T09:00:14.941Z,14.98
2023-01-01T09:01:17.074Z,14.92
2023-01-01T09:02:21.036Z,14.93
2023-01-01T09:03:24.153Z,15.01
2023-01-01T09:04:25.762Z,14.86
2023-01-01T09:05:28.200Z,14.99
2023-01-01T09:06:29.808Z,15.14
2023-01-01T09:07:32.475Z,15.22
2023-01-01T09:08:34.986Z,14.94
2023-01-01T09:09:37.422Z,14.96
2023-01-01T09:10:38.995Z,15.11
2023-01-01T09:11:50.818Z,15.21
2023-01-01T09:12:53.250Z,15.22
2023-01-01T09:13:55.743Z,15.19
2023-01-01T09:14:58.192Z,15.03
2023-01-01T09:16:00.913Z,15.30
2023-01-01T09:17:04.056Z,15.38
2023-01-01T09:18:08.030Z,15.39
2023-01-01T09:19:10.429Z,15.28
2023-01-01T09:20:12.832Z,15.16
2023-01-01T09:21:14.348Z,15.13
2023-01-01T09:22:16.876Z,15.17
2023-01-01T09:23:18.391Z,15.29
2023-01-01T09:24:21.031Z,15.33
2023-01-01T09:25:23.826Z,15.31
2023-01-01T09:26:26.970Z,15.40
2023-01-01T09:27:29.478Z,15.50
2023-01-01T09:28:32.137Z,15.59
2023-01-01T09:29:34.547Z,15.52
2023-01-01T09:30:36.466Z,15.58
2023-01-01T09:31:38.980Z,15.57
2023-01-01T09:32:40.823Z,15.51
2023-01-01T09:33:45.762Z,15.48
2023-01-01T09:34:52.073Z,15.43
2023-01-01T09:35:55.015Z,15.54
2023-01-01T09:36:57.433Z,15.60
2023-01-01T09:37:59.861Z,15.54
2023-01-01T09:39:03.452Z,15.62
2023-01-01T09:40:06.602Z,15.72
2023-01-01T09:41:17.908Z,15.91
2023-01-01T09:42:32.416Z,15.85
2023-01-01T09:43:45.954Z,15.85
2023-01-01T09:45:05.142Z,15.97
2023-01-01T09:46:11.210Z,16.09
2023-01-01T09:47:23.047Z,15.88
2023-01-01T09:48:27.413Z,15.93
2023-01-01T09:49:35.611Z,16.07
2023-01-01T09:50:40.829Z,16.12
2023-01-01T09:51:50.111Z,15.93
2023-01-01T09:52:58.384Z,16.08
2023-01-01T09:54:06.219Z,16.17
2023-01-01T09:55:18.495Z,16.17
2023-01-01T09:56:25.048Z,16.21
2023-01-01T09:57:30.383Z,16.45
2023-01-01T09:58:35.145Z,16.36
2023-01-01T09:59:36.769Z,16.57
2023-01-01T10:00:43.676Z,16.70
2023-01-01T10:01:51.208Z,16.72
2023-01-01T10:03:07.826Z,16.77
2023-01-01T10:04:25.689Z,16.95
2023-01-01T10:05:35.136Z,17.09
2023-01-01T10:06:43.198Z,16.96
2023-01-01T10:07:48.965Z,16.94
2023-01-01T10:09:10.610Z,16.96
2023-01-01T10:10:25.237Z,17.10
2023-01-01T10:11:37.141Z,16.90
2023-01-01T10:12:45.969Z,17.01
2023-01-01T10:13:49.119Z,17.06
2023-01-01T10:15:00.852Z,17.13
2023-01-01T10:16:10.411Z,16.64
2023-01-01T10:17:18.432Z,16.90
2023-01-01T10:18:24.611Z,17.19
2023-01-01T10:19:34.579Z,17.01
2023-01-01T10:20:43.069Z,17.23
2023-01-01T10:21:47.672Z,17.14
2023-01-01T10:22:54.117Z,17.05
2023-01-01T10:23:59.563Z,17.09
2023-01-01T10:25:05.590Z,16.84
2023-01-01T10:26:13.341Z,16.89
2023-01-01T10:27:28.118Z,17.09
2023-01-01T10:28:36.615Z,17.42
2023-01-01T10:29:43.674Z,17.29
2023-01-01T10:30:45.374Z,17.51
2023-01-01T10:31:48.793Z,17.59
2023-01-01T10:32:53.308Z,17.56
2023-01-01T10:33:54.863Z,17.54
2023-01-01T10:34:59.022Z,17.49
2023-01-01T10:36:02.165Z,17.36
2023-01-01T10:37:05.755Z,17.57
2023-01-01T10:38:08.565Z,17.56
2023-01-01T10:39:15.609Z,17.31
2023-01-01T10:40:19.272Z,17.32
2023-01-01T10:41:21.786Z,17.01
2023-01-01T10:42:23.265Z,16.91
2023-01-01T10:43:25.756Z,16.71
2023-01-01T10:44:31.197Z,16.57
2023-01-01T10:45:35.445Z,16.75
2023-01-01T10:46:43.181Z,16.89
2023-01-01T10:48:09.211Z,16.89
2023-01-01T10:49:13.729Z,16.78
2023-01-01T10:50:15.330Z,17.04
2023-01-01T10:51:24.767Z,16.96
2023-01-01T10:52:35.206Z,16.83
2023-01-01T10:53:38.457Z,16.74
2023-01-01T10:54:42.094Z,16.55
2023-01-01T10:55:49.456Z,16.68
2023-01-01T10:56:51.913Z,16.66
2023-01-01T10:57:54.198Z,16.87
2023-01-01T10:58:58.669Z,16.89
2023-01-01T11:00:22.428Z,17.00
2023-01-01T11:01:26.934Z,16.78
2023-01-01T11:02:28.805Z,16.82
2023-01-01T11:03:31.656Z,16.55
2023-01-01T11:04:34.708Z,16.46
2023-01-01T11:05:36.551Z,16.36
2023-01-01T11:06:42.395Z,16.48
2023-01-01T11:07:44.122Z,16.62
2023-01-01T11:08:49.928Z,16.58
2023-01-01T11:10:03.048Z,16.39
2023-01-01T11:11:06.909Z,16.50
2023-01-01T11:13:02.441Z,16.45
2023-01-01T11:13:42.230Z,16.67
2023-01-01T11:14:53.144Z,16.78
2023-01-01T11:15:56.492Z,16.93
2023-01-01T11:17:00.159Z,16.54
2023-01-01T11:18:06.592Z,16.30
2023-01-01T11:19:09.916Z,16.45
2023-01-01T11:20:19.415Z,16.51
2023-01-01T11:21:24.107Z,16.33
2023-01-01T11:22:40.451Z,16.42
2023-01-01T11:23:42.993Z,16.38
2023-01-01T11:25:00.931Z,16.39
2023-01-01T11:26:07.097Z,16.20
2023-01-01T11:27:19.095Z,16.12
2023-01-01T11:28:21.918Z,16.39
2023-01-01T11:29:27.526Z,16.52
2023-01-01T11:30:29.825Z,16.56
2023-01-01T11:31:38.596Z,16.74
2023-01-01T11:32:40.176Z,16.93
2023-01-01T11:33:46.636Z,16.96
2023-01-01T11:34:58.792Z,16.79
2023-01-01T11:36:02.172Z,16.97
2023-01-01T11:37:18.668Z,16.88
2023-01-01T11:38:29.794Z,17.05
2023-01-01T11:39:37.514Z,17.05
2023-01-01T11:40:46.576Z,17.22
2023-01-01T11:41:51.502Z,17.12
2023-01-01T11:42:58.299Z,17.06
2023-01-01T11:44:01.449Z,17.12
2023-01-01T11:45:07.827Z,17.09
2023-01-01T11:46:13.280Z,16.93
2023-01-01T11:47:25.499Z,16.86
2023-01-01T11:48:31.067Z,16.82
2023-01-01T11:49:33.372Z,16.75
2023-01-01T11:50:37.555Z,16.89
2023-01-01T11:51:39.064Z,17.03
2023-01-01T11:52:44.202Z,17.21
2023-01-01T11:53:49.022Z,17.30
2023-01-01T11:54:51.646Z,17.02
2023-01-01T11:56:03.964Z,17.12
2023-01-01T11:57:16.004Z,16.85
2023-01-01T11:58:24.381Z,16.80
2023-01-01T11:59:37.105Z,16.63
2023-01-01T12:00:39.671Z,16.74
2023-01-01T12:01:45.958Z,16.63
2023-01-01T12:02:55.958Z,16.71
2023-01-01T12:04:03.852Z,16.53
2023-01-01T12:05:15.877Z,16.67
2023-01-01T12:06:28.413Z,16.83
2023-01-01T12:07:33.890Z,16.83
2023-01-01T12:08:40.632Z,16.37
2023-01-01T12:09:52.332Z,16.67
2023-01-01T12:10:57.370Z,16.83
2023-01-01T12:12:05.266Z,16.95
2023-01-01T12:13:16.515Z,17.04
2023-01-01T12:14:31.002Z,16.99
2023-01-01T12:15:39.696Z,16.95
2023-01-01T12:16:50.546Z,17.39
2023-01-01T12:18:00.398Z,17.62
2023-01-01T12:19:07.656Z,17.74
2023-01-01T12:20:14.239Z,17.74
2023-01-01T12:21:20.059Z,17.81
2023-01-01T12:22:21.732Z,17.91
2023-01-01T12:23:24.276Z,17.19
2023-01-01T12:24:33.062Z,17.04
2023-01-01T12:25:42.095Z,17.27
2023-01-01T12:27:08.584Z,17.83
2023-01-01T12:28:25.724Z,17.97
2023-01-01T12:30:01.795Z,18.33
2023-01-01T12:31:14.150Z,18.47
2023-01-01T12:32:28.457Z,18.55
2023-01-01T12:33:44.163Z,18.42
2023-01-01T12:34:55.540Z,18.21
2023-01-01T12:36:09.299Z,18.41
2023-01-01T12:37:19.583Z,17.84
2023-01-01T12:38:36.510Z,17.95
2023-01-01T12:40:29.431Z,17.86
2023-01-01T12:41:43.037Z,18.16
2023-01-01T12:42:59.041Z,18.39
2023-01-01T12:44:12.456Z,18.16
2023-01-01T12:45:53.592Z,18.10
2023-01-01T12:47:03.070Z,18.18
2023-01-01T12:48:29.679Z,18.53
2023-01-01T12:49:48.396Z,18.66
2023-01-01T12:51:04.948Z,18.03
2023-01-01T12:52:28.783Z,17.97
2023-01-01T12:53:41.320Z,18.18
2023-01-01T12:55:17.634Z,18.52
2023-01-01T12:56:28.098Z,18.65
2023-01-01T12:57:36.051Z,18.81
2023-01-01T12:58:42.119Z,18.87
2023-01-01T12:59:48.827Z,18.25
2023-01-01T13:00:56.322Z,18.38
2023-01-01T13:02:03.412Z,18.60
2023-01-01T13:03:08.368Z,18.17
2023-01-01T13:04:14.223Z,18.02
2023-01-01T13:05:22.311Z,17.97
2023-01-01T13:06:32.073Z,17.93
2023-01-01T13:07:40.794Z,17.70
2023-01-01T13:08:45.720Z,17.86
2023-01-01T13:09:48.570Z,17.55
2023-01-01T13:10:52.853Z,17.63
2023-01-01T13:11:59.941Z,17.67
2023-01-01T13:13:03.941Z,17.43
2023-01-01T13:14:06.546Z,17.11
2023-01-01T13:15:48.522Z,17.27
2023-01-01T13:16:53.763Z,17.19
2023-01-01T13:17:55.390Z,16.98
2023-01-01T13:19:02.565Z,16.93
2023-01-01T13:20:17.771Z,16.74
2023-01-01T13:21:23.440Z,17.01
2023-01-01T13:22:43.058Z,17.14
2023-01-01T13:23:50.642Z,17.23
2023-01-01T13:25:05.620Z,17.16
2023-01-01T13:26:36.243Z,17.01
2023-01-01T13:28:04.743Z,16.90
2023-01-01T13:29:27.172Z,16.77
2023-01-01T13:30:52.474Z,16.95
2023-01-01T13:32:06.655Z,16.70
2023-01-01T13:33:23.387Z,16.59
2023-01-01T13:34:40.322Z,16.74
2023-01-01T13:35:44.137Z,16.94
2023-01-01T13:36:45.591Z,17.09
2023-01-01T13:37:49.108Z,17.26
2023-01-01T13:38:52.259Z,17.45
2023-01-01T13:39:56.859Z,17.28
2023-01-01T13:40:59.355Z,17.17
2023-01-01T13:42:00.909Z,17.17
2023-01-01T13:43:18.776Z,17.03
2023-01-01T13:44:24.135Z,16.93
2023-01-01T13:46:09.861Z,17.22
2023-01-01T13:47:21.134Z,17.49
2023-01-01T13:48:37.635Z,17.40
2023-01-01T13:50:00.185Z,17.69
2023-01-01T13:51:55.005Z,17.83
2023-01-01T13:53:05.948Z,17.15
2023-01-01T13:54:33.103Z,17.29
2023-01-01T13:56:03.802Z,16.70
2023-01-01T13:57:20.263Z,16.93
2023-01-01T13:58:54.601Z,16.98
2023-01-01T14:00:06.132Z,16.53
2023-01-01T14:01:32.965Z,16.84
2023-01-01T14:02:42.017Z,16.60
2023-01-01T14:03:47.746Z,16.45
2023-01-01T14:04:53.820Z,16.64
2023-01-01T14:05:59.169Z,16.86
2023-01-01T14:07:32.880Z,16.99
2023-01-01T14:08:32.129Z,16.99
2023-01-01T14:09:34.576Z,17.03
2023-01-01T14:10:37.838Z,17.08
2023-01-01T14:11:40.392Z,16.89
2023-01-01T14:12:42.087Z,16.85